Aviation Digital Data Service (ADDS)

Output produced by METARs form (0606 UTC 24 January 2019)
found at http://aviationweather.gov/metar/data/
 
KGLS 240552Z AUTO 33006KT 10SM CLR 05/01 A3016 RMK AO2 SLP212 T00500006 10072 20050 401890033 50005
KGLS 240526Z 2406/2506 31008KT P6SM SKC 
     FM240900 36007KT P6SM SKC 
     FM241200 06006KT P6SM SCT250 
     FM241600 11009KT P6SM SCT250